Terminal Aerodrome Forecast
Issued by NWS

Home | Current Version | Previous Version | Text Only | Print | Product List | Glossary On
Versions: 1 2 3 4 5 6 7 8 9 10 11 12 13 14 15 16 17 18 19 20 21 22 23 24 25 26 27
000
FTUS43 KPAH 180716 AAA
TAFOWB
TAF AMD
KOWB 180716Z 1807/1906 00000KT P6SM BKN027
     FM181000 00000KT 3SM BR SKC
      TEMPO 1810/1814 1SM BR VV001
     FM181400 10003KT 4SM BR FEW200
     FM181500 12008KT P6SM SCT200
     FM190300 16009KT P6SM SCT035 BKN100=

USA.gov is the U.S. government's official web portal to all federal, state and local government web resources and services.